Time;durP1;ratioP1;P1;durP2;ratioP2;P2;SDS_P1;SDS_P2;PMS_P1;PMS_P2;Temp;Humidity;BMP_temperature;BMP_pressure;BME280_temperature;BME280_humidity;BME280_pressure;Samples;Min_cycle;Max_cycle;Signal;HPM_P1;HPM_P2
2022/03/20 00:03:07;;;;;;;38.33;20.00;;;;;;;6.50;63.56;102132.63;8325704;28;20044;-63
2022/03/20 00:07:11;;;;;;;32.80;18.83;;;;;;;6.57;62.33;102118.81;8309755;28;20401;-63
2022/03/20 00:11:11;;;;;;;32.75;19.42;;;;;;;6.50;62.32;102121.88;8325211;28;20092;-63
2022/03/20 00:15:12;;;;;;;36.50;18.33;;;;;;;6.59;61.68;102111.53;8321830;28;20547;-63
2022/03/20 00:19:12;;;;;;;33.92;18.48;;;;;;;6.64;61.30;102114.88;8306021;28;20037;-63
2022/03/20 00:23:13;;;;;;;35.13;18.45;;;;;;;6.56;61.74;102103.63;8321981;28;20034;-63
2022/03/20 00:27:15;;;;;;;36.97;18.35;;;;;;;6.63;60.45;102102.41;8322649;28;20418;-63
2022/03/20 00:31:15;;;;;;;33.22;18.25;;;;;;;6.51;60.77;102100.31;8324725;28;20041;-63
2022/03/20 00:35:15;;;;;;;34.90;19.35;;;;;;;6.45;60.57;102089.88;8310884;28;20103;-63
2022/03/20 00:39:16;;;;;;;35.58;18.00;;;;;;;6.40;60.57;102086.53;8324622;28;20123;-63
2022/03/20 00:43:16;;;;;;;32.35;17.73;;;;;;;6.30;60.55;102087.94;8324117;28;20120;-63
2022/03/20 00:47:17;;;;;;;35.75;18.35;;;;;;;6.15;61.27;102082.44;8323651;28;20099;-63
2022/03/20 00:51:17;;;;;;;36.83;18.02;;;;;;;6.02;61.69;102079.50;8323102;28;20034;-63
2022/03/20 00:55:18;;;;;;;31.80;18.27;;;;;;;5.95;61.64;102078.06;8322297;28;20041;-63
2022/03/20 00:59:18;;;;;;;32.80;18.63;;;;;;;5.99;61.36;102063.53;8316851;28;20042;-63
2022/03/20 01:03:19;;;;;;;33.30;18.50;;;;;;;5.98;61.54;102056.44;8319288;28;20498;-63
2022/03/20 01:07:19;;;;;;;32.80;18.25;;;;;;;5.96;61.31;102042.22;8321648;28;20060;-63
2022/03/20 01:11:20;;;;;;;32.65;19.13;;;;;;;5.86;61.76;102044.44;8323637;28;20059;-63
2022/03/20 01:15:20;;;;;;;36.78;18.60;;;;;;;5.83;61.52;102033.88;8321642;28;20053;-63
2022/03/20 01:19:23;;;;;;;35.42;18.98;;;;;;;5.81;61.84;102029.50;8324054;28;20087;-63
2022/03/20 01:23:24;;;;;;;35.47;19.08;;;;;;;5.63;62.52;102027.69;8317321;28;20042;-63
2022/03/20 01:27:24;;;;;;;34.00;18.67;;;;;;;5.54;62.60;102020.06;8312901;28;20490;-63
2022/03/20 01:31:24;;;;;;;42.45;19.88;;;;;;;5.40;63.32;102019.84;8320541;28;20041;-63
2022/03/20 01:35:25;;;;;;;33.72;18.05;;;;;;;5.45;62.88;102009.75;8320428;28;20329;-63
2022/03/20 01:39:25;;;;;;;34.33;18.70;;;;;;;5.50;62.51;102002.38;8322612;28;20053;-63
2022/03/20 01:43:26;;;;;;;37.83;19.75;;;;;;;5.39;62.99;101988.59;8322814;28;20037;-63
2022/03/20 01:47:26;;;;;;;39.50;20.02;;;;;;;5.33;63.23;101978.16;8320786;28;20068;-63
2022/03/20 01:52:11;;;;;;;35.38;18.92;;;;;;;5.42;63.04;101972.34;8320866;28;20037;-63
2022/03/20 01:55:47;;;;;;;35.85;18.75;;;;;;;5.54;62.50;101966.41;8321416;28;20041;-63
2022/03/20 01:59:49;;;;;;;37.03;17.88;;;;;;;5.65;62.53;101958.72;8322177;28;20038;-63
2022/03/20 02:03:53;;;;;;;33.17;18.60;;;;;;;5.59;62.29;101942.94;8322166;28;20069;-63
2022/03/20 02:07:53;;;;;;;34.87;18.10;;;;;;;5.45;62.80;101937.34;8321613;28;20044;-63
2022/03/20 02:11:55;;;;;;;36.45;19.52;;;;;;;5.46;62.50;101931.06;8321857;28;20060;-63
2022/03/20 02:15:55;;;;;;;34.33;17.77;;;;;;;5.42;62.60;101937.50;8313320;28;20601;-63
2022/03/20 02:19:58;;;;;;;36.67;18.77;;;;;;;5.45;62.56;101921.25;8320781;28;20449;-63
2022/03/20 02:24:00;;;;;;;36.67;19.25;;;;;;;5.42;62.60;101908.88;8321420;28;20057;-63
2022/03/20 02:28:01;;;;;;;36.67;18.17;;;;;;;5.42;62.40;101905.31;8321299;28;20036;-63
2022/03/20 02:32:03;;;;;;;35.63;18.35;;;;;;;5.35;62.53;101901.19;8321643;28;20040;-63
2022/03/20 02:36:03;;;;;;;31.92;18.05;;;;;;;5.30;62.44;101900.53;8320019;28;20098;-63
2022/03/20 02:40:04;;;;;;;37.20;19.58;;;;;;;5.26;62.31;101891.78;8321641;28;20037;-63
2022/03/20 02:44:05;;;;;;;34.72;18.30;;;;;;;5.19;62.63;101884.13;8317175;28;20034;-63
2022/03/20 02:48:06;;;;;;;35.08;18.52;;;;;;;5.11;62.79;101872.88;8317791;28;20048;-63
2022/03/20 02:52:07;;;;;;;32.13;17.50;;;;;;;5.09;62.53;101864.91;8316454;28;20045;-63
2022/03/20 02:56:07;;;;;;;34.92;18.35;;;;;;;5.11;62.13;101865.72;8320518;28;20095;-63
2022/03/20 03:00:08;;;;;;;31.38;17.23;;;;;;;5.03;62.22;101867.03;8321552;28;20067;-63
2022/03/20 03:04:09;;;;;;;33.88;18.50;;;;;;;5.00;62.31;101861.81;8310128;28;20041;-63
2022/03/20 03:12:30;;;;;;;35.78;18.40;;;;;;;4.93;61.96;101850.50;8322733;28;20375;-63
2022/03/20 03:16:30;;;;;;;34.50;17.63;;;;;;;4.98;61.87;101836.91;8326511;28;20029;-63
2022/03/20 03:20:32;;;;;;;34.42;16.77;;;;;;;4.89;61.83;101837.31;8326859;28;20030;-63
2022/03/20 03:24:32;;;;;;;31.38;16.73;;;;;;;4.76;62.37;101830.81;8324531;28;20030;-63
2022/03/20 03:28:34;;;;;;;41.63;18.77;;;;;;;4.60;62.99;101833.31;8326671;28;20510;-63
2022/03/20 03:32:35;;;;;;;36.80;18.10;;;;;;;4.43;63.94;101832.38;8326214;28;20038;-63
2022/03/20 03:36:36;;;;;;;33.05;18.00;;;;;;;4.41;63.81;101823.53;8325797;28;20292;-63
2022/03/20 03:40:38;;;;;;;37.83;18.45;;;;;;;4.54;63.24;101822.03;8346383;28;20090;-63
2022/03/20 03:44:39;;;;;;;35.20;17.85;;;;;;;4.45;63.48;101820.63;8325205;28;20053;-63
2022/03/20 03:48:39;;;;;;;36.90;17.25;;;;;;;4.46;63.18;101821.50;8326081;28;20398;-63
2022/03/20 03:52:40;;;;;;;35.33;17.55;;;;;;;4.41;63.38;101807.47;8321986;28;20046;-63
2022/03/20 03:56:40;;;;;;;34.70;17.35;;;;;;;4.31;63.24;101811.50;8319691;28;20135;-63
2022/03/20 04:00:42;;;;;;;34.38;17.35;;;;;;;4.53;62.22;101801.53;8325574;28;20382;-63
2022/03/20 04:04:43;;;;;;;36.63;17.58;;;;;;;4.50;62.34;101793.66;8324838;28;20049;-63
2022/03/20 04:08:43;;;;;;;33.05;17.92;;;;;;;4.46;62.17;101794.75;8325627;28;20046;-63
2022/03/20 04:12:44;;;;;;;34.38;17.27;;;;;;;4.43;62.13;101789.53;8339066;28;20123;-63
2022/03/20 04:16:44;;;;;;;33.00;17.58;;;;;;;4.31;62.80;101779.38;8331897;28;20048;-63
2022/03/20 04:20:45;;;;;;;36.65;19.63;;;;;;;4.26;62.73;101771.56;8325155;28;20490;-63
2022/03/20 04:24:45;;;;;;;34.22;18.70;;;;;;;4.29;62.67;101770.53;8324285;28;20070;-63
2022/03/20 04:28:47;;;;;;;36.67;18.23;;;;;;;4.23;63.30;101762.78;8324745;28;20152;-63
2022/03/20 04:32:47;;;;;;;39.45;19.88;;;;;;;4.20;63.32;101758.47;8324996;28;20080;-63
2022/03/20 04:36:48;;;;;;;36.45;19.00;;;;;;;4.18;63.41;101756.81;8322530;28;20121;-63
2022/03/20 04:40:50;;;;;;;34.83;18.20;;;;;;;4.01;63.95;101755.75;8308880;28;20061;-63
2022/03/20 04:44:50;;;;;;;36.10;18.83;;;;;;;3.99;63.95;101757.63;8309005;28;20042;-63
2022/03/20 04:58:32;;;;;;;35.83;17.85;;;;;;;3.95;64.51;101745.34;8321771;28;20064;-63
2022/03/20 05:01:51;;;;;;;34.70;17.98;;;;;;;3.92;64.85;101753.50;8323395;28;20413;-63
2022/03/20 05:05:52;;;;;;;38.65;18.75;;;;;;;4.00;64.71;101745.97;8323103;28;20045;-63
2022/03/20 05:14:12;;;;;;;42.92;19.05;;;;;;;4.20;65.72;101749.59;8322988;28;20034;-63
2022/03/20 05:18:13;;;;;;;39.28;18.33;;;;;;;4.22;65.90;101758.38;8323179;28;20033;-63
2022/03/20 05:22:13;;;;;;;38.22;20.23;;;;;;;4.42;65.53;101745.81;8323054;28;20041;-63
2022/03/20 05:26:15;;;;;;;40.13;19.75;;;;;;;4.63;65.13;101749.31;8322078;28;20037;-63
2022/03/20 05:30:15;;;;;;;41.38;20.67;;;;;;;4.58;65.68;101741.50;8316775;28;20506;-63
2022/03/20 05:34:16;;;;;;;42.08;20.80;;;;;;;4.37;67.00;101737.16;8311478;28;20417;-63
2022/03/20 05:38:17;;;;;;;37.55;19.23;;;;;;;4.46;66.87;101751.91;8314524;28;20041;-63
2022/03/20 05:42:17;;;;;;;40.95;20.95;;;;;;;4.39;68.55;101745.94;8321106;28;20095;-63
2022/03/20 05:46:18;;;;;;;41.08;21.90;;;;;;;4.28;69.57;101745.59;8321878;28;20029;-63
2022/03/20 05:50:18;;;;;;;42.20;20.45;;;;;;;4.24;69.82;101740.47;8302537;28;20105;-63
2022/03/20 05:54:19;;;;;;;39.65;21.35;;;;;;;4.31;69.91;101741.91;8322207;28;20052;-63
2022/03/20 05:58:19;;;;;;;39.90;21.15;;;;;;;4.37;69.81;101736.28;8320565;28;20509;-63
2022/03/20 06:02:20;;;;;;;48.55;22.60;;;;;;;4.42;69.65;101735.09;8322165;28;20030;-63
2022/03/20 06:06:21;;;;;;;43.88;21.90;;;;;;;4.52;69.71;101730.19;8321036;28;20454;-63
2022/03/20 06:10:22;;;;;;;39.58;19.30;;;;;;;4.65;67.74;101731.34;8320476;28;20041;-63
2022/03/20 06:14:23;;;;;;;48.55;23.70;;;;;;;4.75;67.40;101727.28;8321813;28;20111;-63
2022/03/20 06:18:25;;;;;;;41.63;22.20;;;;;;;4.96;66.25;101715.50;8311937;28;20038;-63
2022/03/20 06:22:26;;;;;;;38.45;21.25;;;;;;;5.19;64.91;101707.19;8320095;28;20044;-63
2022/03/20 06:26:26;;;;;;;36.03;20.23;;;;;;;5.37;63.96;101696.38;8311541;28;20041;-63
2022/03/20 06:30:27;;;;;;;39.72;20.67;;;;;;;5.47;63.25;101691.44;8312547;28;20164;-63
2022/03/20 06:34:27;;;;;;;43.90;21.20;;;;;;;5.63;62.23;101690.53;8319648;28;20043;-63
2022/03/20 06:38:30;;;;;;;42.35;21.70;;;;;;;5.77;61.87;101692.50;8320495;28;20026;-63
2022/03/20 06:42:31;;;;;;;39.58;20.70;;;;;;;5.84;61.84;101675.16;8309221;28;20494;-63
2022/03/20 06:46:33;;;;;;;41.70;21.25;;;;;;;5.99;61.71;101674.31;8321321;28;20494;-63
2022/03/20 06:50:34;;;;;;;43.50;20.92;;;;;;;6.07;61.76;101666.69;8327960;28;21666;-63
2022/03/20 06:54:34;;;;;;;38.22;21.20;;;;;;;6.09;62.34;101667.50;8327313;28;20083;-63
2022/03/20 06:58:35;;;;;;;45.20;23.27;;;;;;;6.15;62.27;101659.09;8326427;28;20049;-63
2022/03/20 07:02:36;;;;;;;47.58;24.38;;;;;;;6.21;63.19;101664.13;8327580;28;20564;-63
2022/03/20 07:06:36;;;;;;;48.72;26.65;;;;;;;6.29;62.70;101664.59;8324407;28;20068;-63
2022/03/20 07:10:37;;;;;;;49.60;25.13;;;;;;;6.39;63.01;101663.13;8311298;28;20056;-63
2022/03/20 07:14:39;;;;;;;43.72;23.10;;;;;;;6.58;62.41;101663.78;8326464;28;20045;-63
2022/03/20 07:18:40;;;;;;;45.72;23.50;;;;;;;6.85;61.88;101659.53;8325720;28;20597;-63
2022/03/20 07:22:41;;;;;;;43.00;23.60;;;;;;;7.00;60.41;101645.19;8326987;28;20033;-63
2022/03/20 07:31:01;;;;;;;45.70;24.83;;;;;;;7.35;59.13;101646.63;8315811;28;20406;-63
2022/03/20 07:35:02;;;;;;;47.50;23.60;;;;;;;7.35;59.25;101643.94;8325267;28;20120;-63
2022/03/20 07:39:03;;;;;;;46.47;24.90;;;;;;;7.26;59.22;101630.19;8325660;28;20455;-63
2022/03/20 07:43:03;;;;;;;52.83;24.52;;;;;;;7.33;59.29;101628.88;8322117;28;21078;-63
2022/03/20 07:47:08;;;;;;;48.70;25.60;;;;;;;7.49;59.15;101622.47;8320535;28;20057;-63
2022/03/20 07:51:08;;;;;;;;;;;;;;;7.83;58.46;101632.84;8313886;28;20050;-64
2022/03/20 07:55:09;;;;;;;44.90;23.17;;;;;;;7.95;58.30;101621.31;8322464;28;20004;-64
2022/03/20 07:59:11;;;;;;;47.75;25.15;;;;;;;8.16;58.99;101619.06;8320892;28;20049;-63
2022/03/20 08:03:12;;;;;;;53.63;26.05;;;;;;;8.19;58.71;101612.63;8316298;28;20044;-63
2022/03/20 08:07:12;;;;;;;50.28;26.50;;;;;;;8.19;57.96;101616.19;8311326;28;20041;-63
2022/03/20 08:11:13;;;;;;;49.33;25.55;;;;;;;8.31;58.31;101625.34;8319512;28;20045;-64
2022/03/20 08:15:16;;;;;;;50.30;26.85;;;;;;;8.18;57.56;101635.13;8319635;28;20483;-64
2022/03/20 08:19:19;;;;;;;44.75;25.90;;;;;;;7.93;59.02;101617.84;8323848;28;20125;-64
2022/03/20 08:23:19;;;;;;;45.80;24.25;;;;;;;7.92;58.63;101616.13;8321741;28;20616;-64
2022/03/20 08:27:20;;;;;;;45.95;24.80;;;;;;;8.49;59.29;101606.16;8323757;28;20406;-64
2022/03/20 08:31:21;;;;;;;44.95;23.83;;;;;;;8.96;57.54;101611.91;8316976;28;20141;-64
2022/03/20 08:35:21;;;;;;;40.80;22.30;;;;;;;8.96;57.41;101616.44;8318337;28;20034;-64
2022/03/20 08:39:22;;;;;;;51.72;25.00;;;;;;;9.11;57.43;101620.78;8324677;28;20806;-64
2022/03/20 08:43:22;;;;;;;47.30;25.30;;;;;;;8.56;58.64;101609.28;8319551;28;20418;-64
2022/03/20 08:47:23;;;;;;;48.55;27.05;;;;;;;8.31;58.99;101628.03;8316257;28;20037;-64
2022/03/20 08:51:24;;;;;;;47.40;25.00;;;;;;;8.39;59.17;101623.03;8320987;28;20083;-64
2022/03/20 08:55:25;;;;;;;50.45;25.60;;;;;;;8.49;58.27;101610.66;8317853;28;20071;-64
2022/03/20 08:59:25;;;;;;;40.95;23.80;;;;;;;8.59;57.39;101607.25;8319925;28;20025;-64
2022/03/20 09:03:25;;;;;;;49.03;25.83;;;;;;;8.51;57.95;101603.34;8316295;28;20169;-64
2022/03/20 09:07:26;;;;;;;52.88;26.02;;;;;;;8.55;58.68;101604.88;8317078;28;20099;-64
2022/03/20 09:11:26;;;;;;;48.70;25.45;;;;;;;8.40;58.19;101584.31;8317409;28;20037;-64
2022/03/20 09:15:29;;;;;;;46.40;24.50;;;;;;;8.39;58.75;101604.16;8304670;28;20038;-63
2022/03/20 09:19:29;;;;;;;48.33;25.42;;;;;;;8.34;57.87;101600.88;8307176;28;20120;-64
2022/03/20 09:23:29;;;;;;;47.30;24.77;;;;;;;8.49;58.23;101607.97;8309325;28;20229;-64
2022/03/20 09:27:30;;;;;;;46.88;25.80;;;;;;;8.54;58.56;101608.53;8309071;28;20052;-64
2022/03/20 09:31:31;;;;;;;45.80;25.75;;;;;;;8.66;57.94;101608.56;8307482;28;20067;-64
2022/03/20 09:35:33;;;;;;;50.03;25.95;;;;;;;9.02;57.88;101599.84;8301867;28;20036;-64
2022/03/20 09:39:33;;;;;;;51.15;25.77;;;;;;;9.25;57.72;101601.84;8302295;28;20041;-64
2022/03/20 09:43:37;;;;;;;49.90;25.35;;;;;;;9.88;56.95;101598.19;8305516;28;20049;-64
2022/03/20 09:47:39;;;;;;;47.70;25.80;;;;;;;11.20;55.46;101592.69;8301262;28;20524;-64
2022/03/20 09:51:41;;;;;;;47.22;25.40;;;;;;;11.73;53.32;101586.72;8302118;28;20128;-63
2022/03/20 09:55:43;;;;;;;42.28;23.67;;;;;;;11.85;51.40;101577.59;8301861;28;20563;-64
2022/03/20 09:59:44;;;;;;;42.08;23.20;;;;;;;12.21;50.79;101600.00;8301400;28;20050;-64
2022/03/20 10:03:46;;;;;;;46.58;24.48;;;;;;;12.22;50.84;101582.72;8292634;28;20083;-64
2022/03/20 10:07:47;;;;;;;49.60;23.95;;;;;;;12.17;50.78;101557.88;8285951;28;20513;-64
2022/03/20 10:11:52;;;;;;;45.40;24.35;;;;;;;12.24;51.61;101553.66;8306487;28;20506;-63
2022/03/20 10:15:52;;;;;;;39.78;24.02;;;;;;;12.41;50.82;101558.56;8288372;28;20360;-64
2022/03/20 10:19:52;;;;;;;42.92;24.30;;;;;;;13.52;50.00;101555.25;8297388;28;20407;-64
2022/03/20 10:23:53;;;;;;;43.15;24.63;;;;;;;13.58;50.20;101567.41;8302099;28;20041;-64
2022/03/20 10:27:57;;;;;;;44.85;24.83;;;;;;;13.60;49.94;101538.22;8291312;28;20347;-64
2022/03/20 10:32:07;;;;;;;38.28;23.50;;;;;;;13.46;49.14;101573.91;8308979;28;20480;-64
2022/03/20 10:36:17;;;;;;;41.72;25.40;;;;;;;13.42;50.20;101553.47;8312210;28;20041;-64
2022/03/20 10:40:20;;;;;;;40.38;22.90;;;;;;;13.78;49.06;101558.34;8311305;28;20045;-64
2022/03/20 10:44:26;;;;;;;43.65;24.25;;;;;;;13.70;49.03;101541.88;8311252;28;20211;-64
2022/03/20 10:48:37;;;;;;;46.20;26.50;;;;;;;13.66;50.09;101546.72;8313406;28;20041;-64
2022/03/20 10:52:38;;;;;;;46.63;25.15;;;;;;;14.53;48.98;101542.47;8308318;28;20520;-64
2022/03/20 10:56:59;;;;;;;44.38;23.48;;;;;;;13.44;50.05;101559.59;8321473;28;20095;-64
2022/03/20 11:00:59;;;;;;;45.20;23.42;;;;;;;12.97;51.17;101582.69;8311165;28;20061;-63
2022/03/20 11:05:00;;;;;;;44.15;23.90;;;;;;;12.00;52.83;101555.66;8328848;28;20110;-64
2022/03/20 11:09:04;;;;;;;62.65;25.13;;;;;;;11.62;54.38;101556.88;8341166;28;20162;-63
2022/03/20 11:13:05;;;;;;;48.40;26.47;;;;;;;11.84;54.62;101548.75;8334783;28;20497;-64
2022/03/20 11:17:06;;;;;;;49.40;26.77;;;;;;;11.83;55.71;101557.88;8334868;28;20288;-64
2022/03/20 11:21:09;;;;;;;50.15;25.15;;;;;;;11.59;56.65;101548.97;8329166;28;20049;-64
2022/03/20 11:25:10;;;;;;;46.55;25.58;;;;;;;11.20;56.82;101543.97;8314760;28;20171;-64
2022/03/20 11:29:12;;;;;;;50.65;27.98;;;;;;;11.03;58.34;101541.75;8323250;28;20412;-64
2022/03/20 11:33:14;;;;;;;46.95;25.30;;;;;;;10.94;58.78;101547.84;8337976;28;20064;-64
2022/03/20 11:37:16;;;;;;;47.20;25.20;;;;;;;11.07;62.03;101554.03;8343352;28;20052;-64
2022/03/20 11:41:21;;;;;;;49.25;26.40;;;;;;;11.28;64.22;101527.13;8338354;28;20540;-64
2022/03/20 11:45:23;;;;;;;50.00;27.15;;;;;;;11.24;66.70;101571.69;8334148;28;20273;-63
2022/03/20 11:49:24;;;;;;;49.90;26.17;;;;;;;11.12;66.75;101568.09;8333681;28;20491;-63
2022/03/20 11:53:27;;;;;;;56.28;26.15;;;;;;;11.13;66.27;101558.13;8337169;28;20029;-63
2022/03/20 12:02:01;;;;;;;45.70;26.00;;;;;;;10.82;69.32;101575.84;8314540;27;20958;-63
2022/03/20 12:06:21;;;;;;;46.33;25.92;;;;;;;10.66;70.58;101569.88;8339600;28;20049;-63
2022/03/20 12:14:48;;;;;;;51.30;26.58;;;;;;;10.19;76.99;101572.56;8367029;27;20968;-63
2022/03/20 12:19:11;;;;;;;48.63;26.48;;;;;;;9.83;80.35;101561.69;8367946;28;20419;-64
2022/03/20 12:23:37;;;;;;;56.13;28.80;;;;;;;9.39;85.41;101578.31;8380321;28;20047;-63
2022/03/20 12:27:38;;;;;;;56.25;29.77;;;;;;;9.23;86.23;101579.50;8378781;28;20417;-64
2022/03/20 12:32:03;;;;;;;59.70;31.60;;;;;;;9.07;91.27;101586.91;8369702;28;20106;-64
2022/03/20 12:36:26;;;;;;;63.25;34.38;;;;;;;9.00;94.31;101582.91;8351778;28;20549;-64
2022/03/20 12:40:30;;;;;;;64.83;34.40;;;;;;;8.95;98.77;101593.16;8356750;28;20425;-64
2022/03/20 12:44:30;;;;;;;62.33;32.00;;;;;;;8.82;100.00;101586.88;8362391;28;20379;-64
2022/03/20 12:48:33;;;;;;;59.58;29.30;;;;;;;8.75;97.97;101596.34;8367364;28;20029;-64
2022/03/20 12:52:35;;;;;;;59.25;30.90;;;;;;;8.73;96.87;101617.13;8365022;28;20076;-64
2022/03/20 12:56:50;;;;;;;58.80;31.15;;;;;;;8.82;95.84;101609.31;8358395;28;20049;-64
2022/03/20 13:00:53;;;;;;;65.95;31.92;;;;;;;8.90;97.37;101616.84;8343299;28;20414;-64
2022/03/20 13:05:10;;;;;;;64.40;31.90;;;;;;;8.99;96.93;101627.91;8354617;28;20040;-64
2022/03/20 13:09:12;;;;;;;60.63;33.10;;;;;;;9.00;96.45;101634.16;8367032;28;20032;-64
2022/03/20 13:13:16;;;;;;;63.72;32.38;;;;;;;8.89;97.28;101636.72;8354995;28;20123;-64
2022/03/20 13:17:25;;;;;;;65.70;34.13;;;;;;;8.89;98.05;101639.41;8350144;28;20037;-64
2022/03/20 13:21:26;;;;;;;60.55;32.35;;;;;;;9.00;99.11;101643.09;8355155;28;20421;-64
2022/03/20 13:25:26;;;;;;;65.50;32.97;;;;;;;9.20;97.22;101636.38;8343447;28;20068;-64
2022/03/20 13:29:27;;;;;;;63.25;33.78;;;;;;;9.55;97.18;101634.81;8332374;28;20061;-64
2022/03/20 13:37:40;;;;;;;63.88;34.35;;;;;;;10.16;94.23;101643.03;8281796;27;20401;-63
2022/03/20 13:41:43;;;;;;;61.47;32.80;;;;;;;10.51;93.25;101649.44;8264980;28;20077;-63
2022/03/20 13:45:44;;;;;;;59.97;31.60;;;;;;;11.02;92.34;101642.84;8252927;28;20061;-63
2022/03/20 13:49:45;;;;;;;56.45;31.52;;;;;;;11.29;89.35;101640.72;8253591;28;20135;-63
2022/03/20 13:54:06;;;;;;;59.35;32.40;;;;;;;11.77;87.14;101647.78;8242935;28;20030;-64
2022/03/20 13:58:07;;;;;;;53.53;29.77;;;;;;;12.14;83.37;101644.88;8260898;28;20070;-64
2022/03/20 14:02:08;;;;;;;54.30;25.67;;;;;;;12.06;78.74;101641.91;8249267;28;20864;-64
2022/03/20 14:06:08;;;;;;;53.80;28.15;;;;;;;11.69;79.58;101649.38;8269341;28;20054;-64
2022/03/20 14:10:18;;;;;;;50.75;27.65;;;;;;;11.89;80.42;101648.66;8272014;28;20406;-64
2022/03/20 14:14:18;;;;;;;58.35;28.70;;;;;;;12.21;79.78;101651.50;8242621;28;20304;-64
2022/03/20 14:18:18;;;;;;;45.88;25.10;;;;;;;11.85;75.56;101661.59;8263797;28;20042;-64
2022/03/20 14:22:19;;;;;;;46.10;26.07;;;;;;;11.77;76.81;101657.75;8239091;28;20069;-64
2022/03/20 14:26:20;;;;;;;47.47;26.00;;;;;;;11.95;77.16;101661.72;8248744;28;20289;-64
2022/03/20 14:39:26;;;;;;;36.78;20.73;;;;;;;12.04;71.24;101655.56;8257293;28;20390;-64
2022/03/20 14:43:27;;;;;;;38.63;20.20;;;;;;;11.93;70.41;101648.28;8260269;28;20053;-64
2022/03/20 14:47:27;;;;;;;38.63;18.77;;;;;;;11.98;70.14;101655.22;8244881;28;20043;-64
2022/03/20 14:51:27;;;;;;;37.13;20.27;;;;;;;12.01;68.98;101660.41;8242759;28;20046;-64
2022/03/20 14:55:28;;;;;;;36.40;18.90;;;;;;;12.11;68.98;101661.38;8240999;28;20505;-64
2022/03/20 14:59:28;;;;;;;34.00;18.67;;;;;;;12.30;68.72;101661.63;8243191;28;20574;-64
2022/03/20 15:03:29;;;;;;;32.92;18.40;;;;;;;12.39;68.99;101663.59;8240128;28;20282;-64
2022/03/20 15:07:29;;;;;;;31.75;17.80;;;;;;;12.51;68.63;101660.75;8260005;28;20081;-64
2022/03/20 15:11:30;;;;;;;34.05;17.95;;;;;;;12.46;65.62;101651.25;8224201;28;20046;-64
2022/03/20 15:15:30;;;;;;;34.33;17.45;;;;;;;12.45;64.98;101654.97;8242253;28;20039;-64
2022/03/20 15:19:31;;;;;;;35.17;17.85;;;;;;;12.40;65.35;101654.47;8238555;28;20042;-64
2022/03/20 15:23:31;;;;;;;31.90;17.20;;;;;;;12.43;65.68;101656.94;8232878;28;20046;-64
2022/03/20 15:27:31;;;;;;;34.30;17.42;;;;;;;12.33;64.29;101655.94;8214920;28;20074;-64
2022/03/20 15:31:33;;;;;;;28.27;17.10;;;;;;;12.22;64.98;101664.06;8251512;28;20398;-63
2022/03/20 15:35:33;;;;;;;35.90;18.15;;;;;;;12.00;64.40;101658.66;8245151;28;20046;-63
2022/03/20 15:39:34;;;;;;;31.02;17.25;;;;;;;11.85;64.55;101667.03;8251934;28;20518;-64
2022/03/20 15:43:35;;;;;;;31.00;16.55;;;;;;;11.80;64.98;101662.94;8240877;28;20045;-64
2022/03/20 15:47:36;;;;;;;34.60;17.17;;;;;;;11.76;65.49;101666.88;8232297;28;20041;-63
2022/03/20 15:51:40;;;;;;;38.00;17.25;;;;;;;11.69;65.14;101677.31;8200187;28;20348;-63
2022/03/20 15:55:41;;;;;;;31.02;17.60;;;;;;;11.62;65.07;101670.66;8232422;28;20039;-63
2022/03/20 15:59:41;;;;;;;30.75;16.65;;;;;;;11.56;65.92;101675.66;8237098;28;20035;-63
2022/03/20 16:03:42;;;;;;;33.55;16.17;;;;;;;11.52;65.38;101685.88;8256289;28;20524;-63
2022/03/20 16:07:42;;;;;;;30.77;16.52;;;;;;;11.50;65.21;101671.56;8245793;28;20173;-63
2022/03/20 16:11:43;;;;;;;27.63;15.67;;;;;;;11.35;64.45;101678.16;8236931;28;20121;-63
2022/03/20 16:15:43;;;;;;;32.00;15.88;;;;;;;11.32;63.83;101688.38;8240400;28;20277;-63
2022/03/20 16:19:44;;;;;;;26.45;14.93;;;;;;;11.32;63.48;101683.81;8236042;28;20142;-63
2022/03/20 16:28:37;;;;;;;24.98;15.30;;;;;;;11.21;62.92;101686.47;8235182;28;20054;-63
2022/03/20 16:32:25;;;;;;;25.85;13.80;;;;;;;11.25;62.54;101704.22;8238367;28;20080;-63
2022/03/20 16:36:27;;;;;;;26.90;13.82;;;;;;;11.26;61.94;101703.22;8235875;28;20050;-63
2022/03/20 16:40:27;;;;;;;23.90;12.88;;;;;;;11.35;60.99;101693.56;8225473;28;20038;-63
2022/03/20 16:44:30;;;;;;;29.27;13.77;;;;;;;11.29;61.44;101710.28;8234536;28;20144;-63
2022/03/20 16:48:31;;;;;;;24.30;12.40;;;;;;;11.27;61.60;101704.09;8242225;28;20075;-63
2022/03/20 16:52:31;;;;;;;24.65;12.35;;;;;;;11.22;60.86;101715.28;8254634;28;20824;-63
2022/03/20 16:56:32;;;;;;;20.40;10.93;;;;;;;11.22;59.43;101723.41;8214862;28;20039;-63
2022/03/20 17:00:34;;;;;;;18.15;10.95;;;;;;;11.25;58.42;101712.34;8220615;28;20038;-63
2022/03/20 17:04:34;;;;;;;22.10;9.95;;;;;;;11.25;57.79;101720.47;8228226;28;20517;-63
2022/03/20 17:08:37;;;;;;;16.23;9.55;;;;;;;11.19;57.77;101723.63;8203113;28;20422;-63
2022/03/20 17:12:38;;;;;;;18.10;10.32;;;;;;;11.16;57.11;101741.97;8235267;28;20100;-63
2022/03/20 17:16:39;;;;;;;24.80;10.88;;;;;;;11.14;56.62;101733.94;8225223;28;20170;-63
2022/03/20 17:20:39;;;;;;;20.55;9.65;;;;;;;11.09;56.13;101746.06;8227526;28;20042;-63
2022/03/20 17:24:39;;;;;;;16.42;9.00;;;;;;;11.10;56.37;101754.09;8221193;28;20038;-63
2022/03/20 17:28:40;;;;;;;18.08;9.18;;;;;;;11.03;56.27;101765.47;8233791;28;20052;-63
2022/03/20 17:32:41;;;;;;;16.77;8.98;;;;;;;10.93;56.76;101751.78;8231378;28;20046;-63
2022/03/20 17:36:41;;;;;;;18.42;9.25;;;;;;;10.93;56.61;101745.50;8232887;28;20042;-63
2022/03/20 17:40:42;;;;;;;20.48;9.77;;;;;;;10.87;56.73;101757.63;8232753;28;20049;-63
2022/03/20 17:44:43;;;;;;;17.08;9.52;;;;;;;10.83;56.17;101755.25;8235196;28;20042;-63
2022/03/20 17:48:43;;;;;;;15.45;8.25;;;;;;;10.83;55.89;101766.09;8241143;28;20046;-63
2022/03/20 17:52:43;;;;;;;17.65;8.88;;;;;;;10.81;55.97;101771.59;8211571;28;20042;-63
2022/03/20 17:56:44;;;;;;;15.95;8.55;;;;;;;10.72;57.06;101774.97;8222137;28;20105;-65
2022/03/20 18:00:44;;;;;;;17.85;9.30;;;;;;;10.65;57.03;101784.53;8237117;28;20044;-64
2022/03/20 18:09:05;;;;;;;16.17;9.30;;;;;;;10.60;58.14;101783.97;8236336;28;20434;-64
2022/03/20 18:13:08;;;;;;;16.63;9.05;;;;;;;10.54;58.30;101792.53;8230882;28;20050;-64
2022/03/20 18:17:09;;;;;;;17.55;9.35;;;;;;;10.48;59.29;101797.50;8245240;28;20137;-64
2022/03/20 18:21:09;;;;;;;20.63;10.15;;;;;;;10.38;60.15;101796.41;8204194;28;20078;-64
2022/03/20 18:25:10;;;;;;;20.50;9.63;;;;;;;10.34;60.50;101795.75;8197487;28;20518;-64
2022/03/20 18:29:10;;;;;;;18.30;9.82;;;;;;;10.37;60.13;101800.09;8202176;28;20074;-64
2022/03/20 18:33:11;;;;;;;21.20;9.88;;;;;;;10.30;60.44;101788.84;8196040;28;20232;-64
2022/03/20 18:37:12;;;;;;;21.45;9.35;;;;;;;10.31;60.06;101795.97;8228296;28;20378;-64
2022/03/20 18:41:12;;;;;;;18.15;9.25;;;;;;;10.24;59.90;101793.84;8232331;28;20136;-64
2022/03/20 18:45:13;;;;;;;17.67;9.88;;;;;;;10.10;61.78;101786.69;8237185;28;20043;-64
2022/03/20 18:49:15;;;;;;;16.77;8.95;;;;;;;10.13;62.16;101797.28;8234298;28;20041;-64
2022/03/20 18:53:15;;;;;;;19.23;9.43;;;;;;;10.14;61.55;101801.72;8237566;28;20042;-64
2022/03/20 18:57:19;;;;;;;21.17;10.60;;;;;;;10.08;62.61;101810.25;8233535;28;20043;-64
2022/03/20 19:01:21;;;;;;;16.25;9.02;;;;;;;9.98;63.02;101814.53;8237856;28;20034;-64
2022/03/20 19:05:21;;;;;;;19.65;8.75;;;;;;;9.98;62.30;101825.31;8232343;28;20707;-64
2022/03/20 19:09:22;;;;;;;18.45;9.32;;;;;;;10.00;62.89;101823.38;8235776;28;20061;-64
2022/03/20 19:13:22;;;;;;;18.45;9.60;;;;;;;9.90;64.01;101814.16;8231958;28;20128;-64
2022/03/20 19:17:23;;;;;;;17.23;9.38;;;;;;;9.93;64.58;101830.16;8243054;28;20066;-64
2022/03/20 19:21:23;;;;;;;20.88;10.32;;;;;;;9.81;65.94;101829.16;8231872;28;20049;-64